sensor_id;sensor_type;location;lat;lon;timestamp;pressure;altitude;pressure_sealevel;temperature;humidity
6150;BME280;3106;42.670;23.318;2023-01-10T00:00:03;93655.56;;;4.08;100.00
6150;BME280;3106;42.670;23.318;2023-01-10T00:02:30;93637.72;;;3.97;100.00
6150;BME280;3106;42.670;23.318;2023-01-10T00:04:59;93651.84;;;4.01;100.00
6150;BME280;3106;42.670;23.318;2023-01-10T00:07:28;93648.91;;;4.02;100.00
6150;BME280;3106;42.670;23.318;2023-01-10T00:10:01;93647.34;;;4.01;100.00
6150;BME280;3106;42.670;23.318;2023-01-10T00:12:28;93662.91;;;4.03;100.00
6150;BME280;3106;42.670;23.318;2023-01-10T00:15:15;93639.22;;;4.06;100.00
6150;BME280;3106;42.670;23.318;2023-01-10T00:17:42;93633.34;;;4.01;100.00
6150;BME280;3106;42.670;23.318;2023-01-10T00:20:12;93658.06;;;4.05;100.00
6150;BME280;3106;42.670;23.318;2023-01-10T00:22:38;93611.38;;;4.09;100.00
6150;BME280;3106;42.670;23.318;2023-01-10T00:25:06;93649.63;;;4.11;100.00
6150;BME280;3106;42.670;23.318;2023-01-10T00:27:33;93629.75;;;4.05;100.00
6150;BME280;3106;42.670;23.318;2023-01-10T00:30:01;93660.44;;;3.98;100.00
6150;BME280;3106;42.670;23.318;2023-01-10T00:32:38;93629.16;;;4.00;100.00
6150;BME280;3106;42.670;23.318;2023-01-10T00:35:06;93641.16;;;3.97;100.00
6150;BME280;3106;42.670;23.318;2023-01-10T00:37:35;93621.41;;;3.95;100.00
6150;BME280;3106;42.670;23.318;2023-01-10T00:40:02;93616.41;;;4.02;100.00
6150;BME280;3106;42.670;23.318;2023-01-10T00:42:29;93614.38;;;3.99;100.00
6150;BME280;3106;42.670;23.318;2023-01-10T00:45:13;93611.81;;;3.90;100.00
6150;BME280;3106;42.670;23.318;2023-01-10T00:47:42;93557.50;;;3.93;100.00
6150;BME280;3106;42.670;23.318;2023-01-10T00:50:11;93605.28;;;3.88;100.00
6150;BME280;3106;42.670;23.318;2023-01-10T00:52:39;93612.25;;;3.92;100.00
6150;BME280;3106;42.670;23.318;2023-01-10T00:55:07;93588.47;;;3.92;100.00
6150;BME280;3106;42.670;23.318;2023-01-10T00:57:34;93630.59;;;3.97;100.00
6150;BME280;3106;42.670;23.318;2023-01-10T01:00:04;93593.81;;;4.04;100.00
6150;BME280;3106;42.670;23.318;2023-01-10T01:02:33;93579.69;;;4.00;100.00
6150;BME280;3106;42.670;23.318;2023-01-10T01:05:00;93610.97;;;3.98;100.00
6150;BME280;3106;42.670;23.318;2023-01-10T01:07:28;93583.88;;;4.01;100.00
6150;BME280;3106;42.670;23.318;2023-01-10T01:09:56;93599.25;;;4.08;100.00
6150;BME280;3106;42.670;23.318;2023-01-10T01:12:41;93597.19;;;4.13;100.00
6150;BME280;3106;42.670;23.318;2023-01-10T01:15:08;93594.69;;;4.17;100.00
6150;BME280;3106;42.670;23.318;2023-01-10T01:17:38;93582.84;;;4.14;100.00
6150;BME280;3106;42.670;23.318;2023-01-10T01:20:07;93540.69;;;3.97;100.00
6150;BME280;3106;42.670;23.318;2023-01-10T01:22:34;93585.84;;;4.13;100.00
6150;BME280;3106;42.670;23.318;2023-01-10T01:25:07;93586.41;;;4.18;100.00
6150;BME280;3106;42.670;23.318;2023-01-10T01:27:37;93613.34;;;4.20;100.00
6150;BME280;3106;42.670;23.318;2023-01-10T01:30:06;93564.69;;;4.13;100.00
6150;BME280;3106;42.670;23.318;2023-01-10T01:32:34;93642.66;;;4.07;100.00
6150;BME280;3106;42.670;23.318;2023-01-10T01:35:01;93598.47;;;4.07;100.00
6150;BME280;3106;42.670;23.318;2023-01-10T01:37:31;93588.59;;;4.16;100.00
6150;BME280;3106;42.670;23.318;2023-01-10T01:39:58;93528.41;;;4.13;100.00
6150;BME280;3106;42.670;23.318;2023-01-10T01:42:28;93600.47;;;4.10;100.00
6150;BME280;3106;42.670;23.318;2023-01-10T01:48:24;93599.28;;;4.28;100.00
6150;BME280;3106;42.670;23.318;2023-01-10T01:50:58;93561.78;;;4.26;100.00
6150;BME280;3106;42.670;23.318;2023-01-10T01:53:33;93575.91;;;4.30;100.00
6150;BME280;3106;42.670;23.318;2023-01-10T01:56:08;93572.16;;;4.31;100.00
6150;BME280;3106;42.670;23.318;2023-01-10T01:58:44;93566.22;;;4.34;100.00
6150;BME280;3106;42.670;23.318;2023-01-10T02:01:14;93570.72;;;4.34;100.00
6150;BME280;3106;42.670;23.318;2023-01-10T02:03:46;93543.31;;;4.38;100.00
6150;BME280;3106;42.670;23.318;2023-01-10T02:06:17;93533.03;;;4.37;100.00
6150;BME280;3106;42.670;23.318;2023-01-10T02:08:53;93516.53;;;4.40;100.00
6150;BME280;3106;42.670;23.318;2023-01-10T02:11:23;93539.91;;;4.38;100.00
6150;BME280;3106;42.670;23.318;2023-01-10T02:13:52;93523.38;;;4.41;100.00
6150;BME280;3106;42.670;23.318;2023-01-10T02:16:20;93542.66;;;4.41;100.00
6150;BME280;3106;42.670;23.318;2023-01-10T02:18:46;93523.47;;;4.44;100.00
6150;BME280;3106;42.670;23.318;2023-01-10T02:21:35;93548.66;;;4.50;100.00
6150;BME280;3106;42.670;23.318;2023-01-10T02:27:25;93514.06;;;4.35;100.00
6150;BME280;3106;42.670;23.318;2023-01-10T02:32:57;93498.53;;;4.33;100.00
6150;BME280;3106;42.670;23.318;2023-01-10T02:36:08;93513.06;;;4.27;100.00
6150;BME280;3106;42.670;23.318;2023-01-10T02:38:48;93525.50;;;4.27;100.00
6150;BME280;3106;42.670;23.318;2023-01-10T02:41:22;93520.09;;;4.23;100.00
6150;BME280;3106;42.670;23.318;2023-01-10T02:43:57;93526.06;;;4.20;100.00
6150;BME280;3106;42.670;23.318;2023-01-10T02:46:28;93514.75;;;4.11;100.00
6150;BME280;3106;42.670;23.318;2023-01-10T02:48:57;93519.59;;;4.09;100.00
6150;BME280;3106;42.670;23.318;2023-01-10T02:51:25;93505.41;;;4.14;100.00
6150;BME280;3106;42.670;23.318;2023-01-10T02:53:55;93520.94;;;4.15;100.00
6150;BME280;3106;42.670;23.318;2023-01-10T02:56:47;93527.78;;;4.16;100.00
6150;BME280;3106;42.670;23.318;2023-01-10T02:59:53;93525.47;;;4.15;100.00
6150;BME280;3106;42.670;23.318;2023-01-10T03:05:23;93528.41;;;4.13;100.00
6150;BME280;3106;42.670;23.318;2023-01-10T03:08:00;93538.94;;;4.22;100.00
6150;BME280;3106;42.670;23.318;2023-01-10T03:10:40;93537.06;;;4.22;100.00
6150;BME280;3106;42.670;23.318;2023-01-10T03:13:16;93546.13;;;4.21;100.00
6150;BME280;3106;42.670;23.318;2023-01-10T03:15:49;93535.53;;;4.21;100.00
6150;BME280;3106;42.670;23.318;2023-01-10T03:18:20;93555.16;;;4.20;100.00
6150;BME280;3106;42.670;23.318;2023-01-10T03:20:54;93543.91;;;4.23;100.00
6150;BME280;3106;42.670;23.318;2023-01-10T03:23:24;93528.59;;;4.29;100.00
6150;BME280;3106;42.670;23.318;2023-01-10T03:25:52;93553.97;;;4.30;100.00
6150;BME280;3106;42.670;23.318;2023-01-10T03:28:27;93569.31;;;4.36;100.00
6150;BME280;3106;42.670;23.318;2023-01-10T03:30:58;93569.47;;;4.40;100.00
6150;BME280;3106;42.670;23.318;2023-01-10T03:33:28;93541.34;;;4.47;100.00
6150;BME280;3106;42.670;23.318;2023-01-10T03:36:08;93546.44;;;4.52;100.00
6150;BME280;3106;42.670;23.318;2023-01-10T03:38:44;93552.00;;;4.59;100.00
6150;BME280;3106;42.670;23.318;2023-01-10T03:41:23;93550.69;;;4.65;100.00
6150;BME280;3106;42.670;23.318;2023-01-10T03:44:04;93544.09;;;4.71;100.00
6150;BME280;3106;42.670;23.318;2023-01-10T03:46:53;93546.00;;;4.82;100.00
6150;BME280;3106;42.670;23.318;2023-01-10T03:49:24;93536.84;;;4.80;100.00
6150;BME280;3106;42.670;23.318;2023-01-10T03:51:58;93535.09;;;4.84;100.00
6150;BME280;3106;42.670;23.318;2023-01-10T03:54:26;93527.28;;;4.87;100.00
6150;BME280;3106;42.670;23.318;2023-01-10T03:56:54;93513.38;;;4.90;100.00
6150;BME280;3106;42.670;23.318;2023-01-10T03:59:24;93492.31;;;4.94;100.00
6150;BME280;3106;42.670;23.318;2023-01-10T04:01:52;93463.38;;;4.77;100.00
6150;BME280;3106;42.670;23.318;2023-01-10T04:04:19;93471.00;;;4.90;100.00
6150;BME280;3106;42.670;23.318;2023-01-10T04:06:45;93457.97;;;4.85;100.00
6150;BME280;3106;42.670;23.318;2023-01-10T04:09:14;93437.19;;;4.63;100.00
6150;BME280;3106;42.670;23.318;2023-01-10T04:11:40;93457.06;;;4.69;100.00
6150;BME280;3106;42.670;23.318;2023-01-10T04:14:07;93451.66;;;4.66;100.00
6150;BME280;3106;42.670;23.318;2023-01-10T04:16:34;93463.56;;;4.60;100.00
6150;BME280;3106;42.670;23.318;2023-01-10T04:19:01;93453.50;;;4.53;100.00
6150;BME280;3106;42.670;23.318;2023-01-10T04:21:27;93470.63;;;4.56;100.00
6150;BME280;3106;42.670;23.318;2023-01-10T04:23:54;93482.03;;;4.48;100.00
6150;BME280;3106;42.670;23.318;2023-01-10T04:26:22;93502.09;;;4.49;100.00
6150;BME280;3106;42.670;23.318;2023-01-10T04:28:52;93527.81;;;4.48;100.00
6150;BME280;3106;42.670;23.318;2023-01-10T04:31:21;93522.63;;;4.52;100.00
6150;BME280;3106;42.670;23.318;2023-01-10T04:33:50;93529.28;;;4.58;100.00
6150;BME280;3106;42.670;23.318;2023-01-10T04:36:17;93551.88;;;4.55;100.00
6150;BME280;3106;42.670;23.318;2023-01-10T04:38:45;93553.78;;;4.67;100.00
6150;BME280;3106;42.670;23.318;2023-01-10T04:41:12;93544.75;;;4.68;100.00
6150;BME280;3106;42.670;23.318;2023-01-10T04:43:40;93553.72;;;4.75;100.00
6150;BME280;3106;42.670;23.318;2023-01-10T04:46:07;93532.19;;;4.77;100.00
6150;BME280;3106;42.670;23.318;2023-01-10T04:48:34;93528.03;;;4.88;100.00
6150;BME280;3106;42.670;23.318;2023-01-10T04:51:02;93498.44;;;4.86;100.00
6150;BME280;3106;42.670;23.318;2023-01-10T04:53:30;93502.34;;;4.88;100.00
6150;BME280;3106;42.670;23.318;2023-01-10T04:56:05;93505.97;;;4.84;100.00
6150;BME280;3106;42.670;23.318;2023-01-10T04:58:33;93526.91;;;4.77;100.00
6150;BME280;3106;42.670;23.318;2023-01-10T05:01:07;93523.34;;;4.61;100.00
6150;BME280;3106;42.670;23.318;2023-01-10T05:03:35;93522.78;;;4.67;100.00
6150;BME280;3106;42.670;23.318;2023-01-10T05:06:02;93502.41;;;4.68;100.00
6150;BME280;3106;42.670;23.318;2023-01-10T05:08:30;93503.59;;;4.70;100.00
6150;BME280;3106;42.670;23.318;2023-01-10T05:10:57;93503.25;;;4.60;100.00
6150;BME280;3106;42.670;23.318;2023-01-10T05:13:26;93493.47;;;4.72;100.00
6150;BME280;3106;42.670;23.318;2023-01-10T05:15:53;93483.53;;;4.69;100.00
6150;BME280;3106;42.670;23.318;2023-01-10T05:18:21;93480.34;;;4.76;100.00
6150;BME280;3106;42.670;23.318;2023-01-10T05:20:48;93469.88;;;4.79;100.00
6150;BME280;3106;42.670;23.318;2023-01-10T05:23:15;93473.75;;;4.82;100.00
6150;BME280;3106;42.670;23.318;2023-01-10T05:25:42;93477.72;;;4.76;100.00
6150;BME280;3106;42.670;23.318;2023-01-10T05:28:09;93484.53;;;4.77;100.00
6150;BME280;3106;42.670;23.318;2023-01-10T05:30:36;93472.50;;;4.67;100.00
6150;BME280;3106;42.670;23.318;2023-01-10T05:33:03;93484.13;;;4.87;100.00
6150;BME280;3106;42.670;23.318;2023-01-10T05:35:31;93485.13;;;4.94;100.00
6150;BME280;3106;42.670;23.318;2023-01-10T05:37:58;93482.25;;;4.99;100.00
6150;BME280;3106;42.670;23.318;2023-01-10T05:40:25;93490.66;;;5.01;100.00
6150;BME280;3106;42.670;23.318;2023-01-10T05:42:52;93507.19;;;4.98;100.00
6150;BME280;3106;42.670;23.318;2023-01-10T05:45:19;93517.47;;;5.00;100.00
6150;BME280;3106;42.670;23.318;2023-01-10T05:47:46;93509.53;;;5.00;100.00
6150;BME280;3106;42.670;23.318;2023-01-10T05:50:13;93500.56;;;5.04;100.00
6150;BME280;3106;42.670;23.318;2023-01-10T05:52:41;93506.56;;;5.13;100.00
6150;BME280;3106;42.670;23.318;2023-01-10T05:55:08;93496.63;;;5.22;100.00
6150;BME280;3106;42.670;23.318;2023-01-10T05:57:35;93489.34;;;5.19;100.00
6150;BME280;3106;42.670;23.318;2023-01-10T06:00:03;93498.94;;;5.24;100.00
6150;BME280;3106;42.670;23.318;2023-01-10T06:02:31;93504.25;;;5.24;100.00
6150;BME280;3106;42.670;23.318;2023-01-10T06:05:00;93501.81;;;5.19;100.00
6150;BME280;3106;42.670;23.318;2023-01-10T06:07:27;93495.53;;;5.23;100.00
6150;BME280;3106;42.670;23.318;2023-01-10T06:09:55;93504.03;;;5.29;100.00
6150;BME280;3106;42.670;23.318;2023-01-10T06:12:22;93515.97;;;5.35;100.00
6150;BME280;3106;42.670;23.318;2023-01-10T06:14:49;93510.31;;;5.36;100.00
6150;BME280;3106;42.670;23.318;2023-01-10T06:17:16;93505.81;;;5.37;100.00
6150;BME280;3106;42.670;23.318;2023-01-10T06:19:44;93488.25;;;5.32;100.00
6150;BME280;3106;42.670;23.318;2023-01-10T06:22:11;93497.63;;;5.42;100.00
6150;BME280;3106;42.670;23.318;2023-01-10T06:24:38;93507.44;;;5.41;100.00
6150;BME280;3106;42.670;23.318;2023-01-10T06:27:08;93504.56;;;5.34;100.00
6150;BME280;3106;42.670;23.318;2023-01-10T06:29:35;93500.81;;;5.35;100.00
6150;BME280;3106;42.670;23.318;2023-01-10T06:32:01;93504.91;;;5.45;100.00
6150;BME280;3106;42.670;23.318;2023-01-10T06:34:28;93503.16;;;5.49;100.00
6150;BME280;3106;42.670;23.318;2023-01-10T06:36:55;93494.53;;;5.52;100.00
6150;BME280;3106;42.670;23.318;2023-01-10T06:39:22;93484.03;;;5.55;100.00
6150;BME280;3106;42.670;23.318;2023-01-10T06:41:49;93494.72;;;5.59;100.00
6150;BME280;3106;42.670;23.318;2023-01-10T06:44:17;93497.16;;;5.64;100.00
6150;BME280;3106;42.670;23.318;2023-01-10T06:46:44;93498.81;;;5.68;100.00
6150;BME280;3106;42.670;23.318;2023-01-10T06:49:11;93501.91;;;5.70;100.00
6150;BME280;3106;42.670;23.318;2023-01-10T06:51:38;93506.88;;;5.72;100.00
6150;BME280;3106;42.670;23.318;2023-01-10T06:54:05;93504.78;;;5.65;100.00
6150;BME280;3106;42.670;23.318;2023-01-10T06:56:32;93488.22;;;5.44;100.00
6150;BME280;3106;42.670;23.318;2023-01-10T06:58:59;93506.47;;;5.70;100.00
6150;BME280;3106;42.670;23.318;2023-01-10T07:01:27;93495.84;;;5.70;100.00
6150;BME280;3106;42.670;23.318;2023-01-10T07:03:56;93500.72;;;5.80;100.00
6150;BME280;3106;42.670;23.318;2023-01-10T07:06:23;93493.97;;;5.82;100.00
6150;BME280;3106;42.670;23.318;2023-01-10T07:08:50;93479.34;;;5.76;100.00
6150;BME280;3106;42.670;23.318;2023-01-10T07:11:17;93487.00;;;5.78;100.00
6150;BME280;3106;42.670;23.318;2023-01-10T07:13:43;93478.72;;;5.79;100.00
6150;BME280;3106;42.670;23.318;2023-01-10T07:16:12;93480.06;;;5.85;100.00
6150;BME280;3106;42.670;23.318;2023-01-10T07:18:42;93472.84;;;5.86;100.00
6150;BME280;3106;42.670;23.318;2023-01-10T07:21:09;93464.13;;;5.85;100.00
6150;BME280;3106;42.670;23.318;2023-01-10T07:23:37;93476.28;;;5.86;100.00
6150;BME280;3106;42.670;23.318;2023-01-10T07:26:05;93464.91;;;5.86;100.00
6150;BME280;3106;42.670;23.318;2023-01-10T07:28:33;93462.59;;;5.84;100.00
6150;BME280;3106;42.670;23.318;2023-01-10T07:31:00;93435.06;;;5.65;100.00
6150;BME280;3106;42.670;23.318;2023-01-10T07:33:28;93454.63;;;5.72;100.00
6150;BME280;3106;42.670;23.318;2023-01-10T07:35:58;93448.13;;;5.70;100.00
6150;BME280;3106;42.670;23.318;2023-01-10T07:38:25;93454.63;;;5.72;100.00
6150;BME280;3106;42.670;23.318;2023-01-10T07:40:52;93450.34;;;5.68;100.00
6150;BME280;3106;42.670;23.318;2023-01-10T07:43:19;93441.16;;;5.65;100.00
6150;BME280;3106;42.670;23.318;2023-01-10T07:45:46;93446.47;;;5.65;100.00
6150;BME280;3106;42.670;23.318;2023-01-10T07:48:13;93435.84;;;5.65;100.00
6150;BME280;3106;42.670;23.318;2023-01-10T07:50:40;93445.34;;;5.66;100.00
6150;BME280;3106;42.670;23.318;2023-01-10T07:53:11;93397.34;;;5.44;100.00
6150;BME280;3106;42.670;23.318;2023-01-10T07:55:38;93445.91;;;5.72;100.00
6150;BME280;3106;42.670;23.318;2023-01-10T07:58:06;93441.28;;;5.69;100.00
6150;BME280;3106;42.670;23.318;2023-01-10T08:00:33;93447.09;;;5.74;100.00
6150;BME280;3106;42.670;23.318;2023-01-10T08:03:00;93450.66;;;5.78;100.00
6150;BME280;3106;42.670;23.318;2023-01-10T08:05:28;93452.97;;;5.80;100.00
6150;BME280;3106;42.670;23.318;2023-01-10T08:07:55;93453.63;;;5.77;100.00
6150;BME280;3106;42.670;23.318;2023-01-10T08:10:26;93463.13;;;5.90;100.00
6150;BME280;3106;42.670;23.318;2023-01-10T08:12:53;93458.25;;;5.92;100.00
6150;BME280;3106;42.670;23.318;2023-01-10T08:15:22;93455.28;;;5.93;100.00
6150;BME280;3106;42.670;23.318;2023-01-10T08:17:49;93459.91;;;5.96;100.00
6150;BME280;3106;42.670;23.318;2023-01-10T08:20:16;93451.94;;;5.96;100.00
6150;BME280;3106;42.670;23.318;2023-01-10T08:22:42;93443.19;;;5.95;100.00
6150;BME280;3106;42.670;23.318;2023-01-10T08:25:09;93442.09;;;5.96;100.00
6150;BME280;3106;42.670;23.318;2023-01-10T08:27:38;93436.78;;;5.96;100.00
6150;BME280;3106;42.670;23.318;2023-01-10T08:30:06;93423.19;;;5.98;100.00
6150;BME280;3106;42.670;23.318;2023-01-10T08:32:33;93415.44;;;6.05;100.00
6150;BME280;3106;42.670;23.318;2023-01-10T08:35:02;93424.59;;;6.07;100.00
6150;BME280;3106;42.670;23.318;2023-01-10T08:37:29;93423.94;;;6.10;100.00
6150;BME280;3106;42.670;23.318;2023-01-10T08:39:56;93409.81;;;6.06;100.00
6150;BME280;3106;42.670;23.318;2023-01-10T08:42:23;93416.59;;;6.19;100.00
6150;BME280;3106;42.670;23.318;2023-01-10T08:44:51;93412.81;;;6.20;100.00
6150;BME280;3106;42.670;23.318;2023-01-10T08:47:18;93419.69;;;6.21;100.00
6150;BME280;3106;42.670;23.318;2023-01-10T08:49:45;93405.53;;;6.17;100.00
6150;BME280;3106;42.670;23.318;2023-01-10T08:52:14;93414.97;;;6.30;100.00
6150;BME280;3106;42.670;23.318;2023-01-10T08:54:41;93406.34;;;6.33;100.00
6150;BME280;3106;42.670;23.318;2023-01-10T08:57:08;93419.13;;;6.43;100.00
6150;BME280;3106;42.670;23.318;2023-01-10T08:59:38;93402.81;;;6.29;100.00
6150;BME280;3106;42.670;23.318;2023-01-10T09:02:08;93409.19;;;6.40;100.00
6150;BME280;3106;42.670;23.318;2023-01-10T09:04:37;93413.56;;;6.48;100.00
6150;BME280;3106;42.670;23.318;2023-01-10T09:07:04;93409.72;;;6.46;100.00
6150;BME280;3106;42.670;23.318;2023-01-10T09:09:31;93399.09;;;6.46;100.00
6150;BME280;3106;42.670;23.318;2023-01-10T09:11:57;93393.50;;;6.35;100.00
6150;BME280;3106;42.670;23.318;2023-01-10T09:14:24;93407.28;;;6.25;100.00
6150;BME280;3106;42.670;23.318;2023-01-10T09:16:54;93412.81;;;6.20;100.00
6150;BME280;3106;42.670;23.318;2023-01-10T09:19:23;93407.19;;;6.22;100.00
6150;BME280;3106;42.670;23.318;2023-01-10T09:21:49;93396.38;;;6.15;100.00
6150;BME280;3106;42.670;23.318;2023-01-10T09:24:16;93388.59;;;5.94;100.00
6150;BME280;3106;42.670;23.318;2023-01-10T09:26:43;93384.25;;;5.75;100.00
6150;BME280;3106;42.670;23.318;2023-01-10T09:29:10;93392.97;;;5.87;100.00
6150;BME280;3106;42.670;23.318;2023-01-10T09:31:39;93390.50;;;5.94;100.00
6150;BME280;3106;42.670;23.318;2023-01-10T09:34:06;93393.59;;;5.96;100.00
6150;BME280;3106;42.670;23.318;2023-01-10T09:36:34;93392.53;;;5.73;100.00
6150;BME280;3106;42.670;23.318;2023-01-10T09:39:01;93376.41;;;5.78;100.00
6150;BME280;3106;42.670;23.318;2023-01-10T09:41:45;93367.66;;;5.78;100.00
6150;BME280;3106;42.670;23.318;2023-01-10T09:44:20;93364.38;;;5.69;100.00
6150;BME280;3106;42.670;23.318;2023-01-10T09:46:56;93359.28;;;5.64;100.00
6150;BME280;3106;42.670;23.318;2023-01-10T09:49:38;93349.91;;;5.66;100.00
6150;BME280;3106;42.670;23.318;2023-01-10T09:52:12;93356.22;;;5.62;100.00
6150;BME280;3106;42.670;23.318;2023-01-10T09:54:44;93347.44;;;5.46;100.00
6150;BME280;3106;42.670;23.318;2023-01-10T09:57:17;93352.19;;;5.52;100.00
6150;BME280;3106;42.670;23.318;2023-01-10T09:59:46;93367.97;;;5.76;100.00
6150;BME280;3106;42.670;23.318;2023-01-10T10:02:25;93350.66;;;5.79;100.00
6150;BME280;3106;42.670;23.318;2023-01-10T10:05:03;93344.59;;;5.78;100.00
6150;BME280;3106;42.670;23.318;2023-01-10T10:07:34;93335.63;;;5.83;100.00
6150;BME280;3106;42.670;23.318;2023-01-10T10:10:04;93339.38;;;5.82;100.00
6150;BME280;3106;42.670;23.318;2023-01-10T10:12:39;93341.09;;;5.62;100.00
6150;BME280;3106;42.670;23.318;2023-01-10T10:15:23;93347.13;;;5.75;100.00
6150;BME280;3106;42.670;23.318;2023-01-10T10:18:04;93350.44;;;5.84;100.00
6150;BME280;3106;42.670;23.318;2023-01-10T10:20:48;93344.88;;;5.89;100.00
6150;BME280;3106;42.670;23.318;2023-01-10T10:26:00;93336.16;;;5.88;100.00
6150;BME280;3106;42.670;23.318;2023-01-10T10:29:06;93338.56;;;5.93;100.00
6150;BME280;3106;42.670;23.318;2023-01-10T10:34:28;93324.88;;;5.91;100.00
6150;BME280;3106;42.670;23.318;2023-01-10T10:37:04;93324.22;;;5.82;100.00
6150;BME280;3106;42.670;23.318;2023-01-10T10:39:37;93318.59;;;5.84;100.00
6150;BME280;3106;42.670;23.318;2023-01-10T10:42:11;93325.44;;;5.85;100.00
6150;BME280;3106;42.670;23.318;2023-01-10T10:44:45;93313.72;;;5.86;100.00
6150;BME280;3106;42.670;23.318;2023-01-10T10:47:15;93318.59;;;5.84;100.00
6150;BME280;3106;42.670;23.318;2023-01-10T10:49:45;93312.53;;;5.71;100.00
6150;BME280;3106;42.670;23.318;2023-01-10T10:52:18;93306.06;;;5.69;100.00
6150;BME280;3106;42.670;23.318;2023-01-10T10:54:48;93304.34;;;5.76;100.00
6150;BME280;3106;42.670;23.318;2023-01-10T10:57:20;93311.75;;;5.83;100.00
6150;BME280;3106;42.670;23.318;2023-01-10T10:59:49;93312.53;;;5.71;100.00
6150;BME280;3106;42.670;23.318;2023-01-10T11:02:22;93315.75;;;5.77;100.00
6150;BME280;3106;42.670;23.318;2023-01-10T11:04:50;93321.50;;;5.79;100.00
6150;BME280;3106;42.670;23.318;2023-01-10T11:07:19;93310.94;;;5.67;100.00
6150;BME280;3106;42.670;23.318;2023-01-10T11:09:47;93302.19;;;5.66;100.00
6150;BME280;3106;42.670;23.318;2023-01-10T11:12:20;93295.34;;;5.65;100.00
6150;BME280;3106;42.670;23.318;2023-01-10T11:14:51;93293.03;;;5.64;100.00
6150;BME280;3106;42.670;23.318;2023-01-10T11:17:20;93291.16;;;5.64;100.00
6150;BME280;3106;42.670;23.318;2023-01-10T11:19:56;93291.28;;;5.56;100.00
6150;BME280;3106;42.670;23.318;2023-01-10T11:22:23;93294.63;;;5.53;100.00
6150;BME280;3106;42.670;23.318;2023-01-10T11:24:52;93288.44;;;5.49;100.00
6150;BME280;3106;42.670;23.318;2023-01-10T11:27:24;93288.34;;;5.45;100.00
6150;BME280;3106;42.670;23.318;2023-01-10T11:29:55;93292.78;;;5.41;100.00
6150;BME280;3106;42.670;23.318;2023-01-10T11:32:32;93293.56;;;5.42;100.00
6150;BME280;3106;42.670;23.318;2023-01-10T11:35:01;93293.75;;;5.49;100.00
6150;BME280;3106;42.670;23.318;2023-01-10T11:37:34;93289.88;;;5.46;100.00
6150;BME280;3106;42.670;23.318;2023-01-10T11:40:15;93291.25;;;5.40;100.00
6150;BME280;3106;42.670;23.318;2023-01-10T11:42:44;93287.47;;;5.41;100.00
6150;BME280;3106;42.670;23.318;2023-01-10T11:45:21;93285.66;;;5.30;100.00
6150;BME280;3106;42.670;23.318;2023-01-10T11:47:50;93292.41;;;5.27;100.00
6150;BME280;3106;42.670;23.318;2023-01-10T11:50:21;93273.22;;;5.18;100.00
6150;BME280;3106;42.670;23.318;2023-01-10T11:52:49;93290.41;;;5.24;100.00
6150;BME280;3106;42.670;23.318;2023-01-10T11:55:18;93286.56;;;5.22;100.00
6150;BME280;3106;42.670;23.318;2023-01-10T11:57:54;93266.91;;;5.23;100.00
6150;BME280;3106;42.670;23.318;2023-01-10T12:00:22;93280.81;;;5.20;100.00
6150;BME280;3106;42.670;23.318;2023-01-10T12:02:56;93278.28;;;5.23;100.00
6150;BME280;3106;42.670;23.318;2023-01-10T12:05:23;93263.38;;;5.19;100.00
6150;BME280;3106;42.670;23.318;2023-01-10T12:07:53;93283.66;;;5.27;100.00
6150;BME280;3106;42.670;23.318;2023-01-10T12:10:21;93285.06;;;5.36;100.00
6150;BME280;3106;42.670;23.318;2023-01-10T12:12:53;93286.03;;;5.44;100.00
6150;BME280;3106;42.670;23.318;2023-01-10T12:15:27;93277.75;;;5.45;100.00
6150;BME280;3106;42.670;23.318;2023-01-10T12:17:57;93287.16;;;5.43;100.00
6150;BME280;3106;42.670;23.318;2023-01-10T12:20:25;93285.38;;;5.47;100.00
6150;BME280;3106;42.670;23.318;2023-01-10T12:22:57;93294.72;;;5.56;100.00
6150;BME280;3106;42.670;23.318;2023-01-10T12:25:30;93284.13;;;5.56;100.00
6150;BME280;3106;42.670;23.318;2023-01-10T12:28:00;93292.31;;;5.51;100.00
6150;BME280;3106;42.670;23.318;2023-01-10T12:30:30;93297.63;;;5.51;100.00
6150;BME280;3106;42.670;23.318;2023-01-10T12:33:00;93294.53;;;5.49;100.00
6150;BME280;3106;42.670;23.318;2023-01-10T12:35:37;93295.41;;;5.53;100.00
6150;BME280;3106;42.670;23.318;2023-01-10T12:38:18;93289.75;;;5.55;100.00
6150;BME280;3106;42.670;23.318;2023-01-10T12:40:50;93286.53;;;5.61;100.00
6150;BME280;3106;42.670;23.318;2023-01-10T12:43:28;93275.75;;;5.54;100.00
6150;BME280;3106;42.670;23.318;2023-01-10T12:46:19;93268.91;;;5.53;100.00
6150;BME280;3106;42.670;23.318;2023-01-10T12:48:54;93261.75;;;5.42;100.00
6150;BME280;3106;42.670;23.318;2023-01-10T12:51:26;93272.94;;;5.35;100.00
6150;BME280;3106;42.670;23.318;2023-01-10T12:53:56;93281.19;;;5.46;100.00
6150;BME280;3106;42.670;23.318;2023-01-10T12:56:26;93285.91;;;5.52;100.00
6150;BME280;3106;42.670;23.318;2023-01-10T12:58:57;93292.25;;;5.63;100.00
6150;BME280;3106;42.670;23.318;2023-01-10T13:01:30;93297.00;;;5.70;100.00
6150;BME280;3106;42.670;23.318;2023-01-10T13:04:02;93302.47;;;5.77;100.00
6150;BME280;3106;42.670;23.318;2023-01-10T13:06:31;93294.72;;;5.84;100.00
6150;BME280;3106;42.670;23.318;2023-01-10T13:09:03;93289.22;;;5.77;100.00
6150;BME280;3106;42.670;23.318;2023-01-10T13:11:36;93297.38;;;5.84;100.00
6150;BME280;3106;42.670;23.318;2023-01-10T13:14:12;93293.38;;;5.90;100.00
6150;BME280;3106;42.670;23.318;2023-01-10T13:16:44;93276.41;;;5.79;100.00
6150;BME280;3106;42.670;23.318;2023-01-10T13:19:24;93293.38;;;5.90;100.00
6150;BME280;3106;42.670;23.318;2023-01-10T13:22:18;93299.88;;;5.92;100.00
6150;BME280;3106;42.670;23.318;2023-01-10T13:24:57;93299.34;;;5.87;100.00
6150;BME280;3106;42.670;23.318;2023-01-10T13:27:29;93305.88;;;5.89;100.00
6150;BME280;3106;42.670;23.318;2023-01-10T13:29:58;93302.97;;;5.94;100.00
6150;BME280;3106;42.670;23.318;2023-01-10T13:32:27;93304.94;;;5.97;100.00
6150;BME280;3106;42.670;23.318;2023-01-10T13:35:10;93295.28;;;5.89;100.00
6150;BME280;3106;42.670;23.318;2023-01-10T13:37:39;93302.19;;;5.93;100.00
6150;BME280;3106;42.670;23.318;2023-01-10T13:40:19;93302.81;;;6.02;100.00
6150;BME280;3106;42.670;23.318;2023-01-10T13:46:35;93295.78;;;5.94;100.00
6150;BME280;3106;42.670;23.318;2023-01-10T13:52:37;93314.50;;;5.86;100.00